createdAt,value
2023-04-17T00:02:19.344Z,23.23
2023-04-17T00:04:47.441Z,22.17
2023-04-17T00:07:16.960Z,23.53
2023-04-17T00:09:44.063Z,22.30
2023-04-17T00:12:16.091Z,23.00
2023-04-17T00:14:43.249Z,22.83
2023-04-17T00:17:15.009Z,22.97
2023-04-17T00:19:44.632Z,23.30
2023-04-17T00:22:16.297Z,22.70
2023-04-17T00:24:48.009Z,24.87
2023-04-17T00:27:17.640Z,23.67
2023-04-17T00:29:46.859Z,24.03
2023-04-17T00:32:16.483Z,23.27
2023-04-17T00:34:43.583Z,23.80
2023-04-17T00:37:13.171Z,21.90
2023-04-17T00:39:42.804Z,22.70
2023-04-17T00:42:09.885Z,22.87
2023-04-17T00:44:39.317Z,22.53
2023-04-17T00:47:08.884Z,22.67
2023-04-17T00:49:36.597Z,23.43
2023-04-17T00:52:08.770Z,22.97
2023-04-17T00:54:36.019Z,24.97
2023-04-17T00:57:03.564Z,21.90
2023-04-17T00:59:36.517Z,23.67
2023-04-17T01:02:06.011Z,22.40
2023-04-17T01:04:35.503Z,24.03
2023-04-17T01:07:05.174Z,21.87
2023-04-17T01:09:35.352Z,22.83
2023-04-17T01:12:25.556Z,22.40
2023-04-17T01:14:53.840Z,23.67
2023-04-17T01:17:26.245Z,23.73
2023-04-17T01:19:53.983Z,22.87
2023-04-17T01:22:21.420Z,24.13
2023-04-17T01:24:53.556Z,22.53
2023-04-17T01:27:22.498Z,23.57
2023-04-17T01:29:49.714Z,23.43
2023-04-17T01:32:19.112Z,24.23
2023-04-17T01:34:46.291Z,24.23
2023-04-17T01:37:15.886Z,24.00
2023-04-17T01:39:45.130Z,23.10
2023-04-17T01:42:14.753Z,23.60
2023-04-17T01:44:44.222Z,24.97
2023-04-17T01:47:14.027Z,24.40
2023-04-17T01:49:43.474Z,23.43
2023-04-17T01:52:10.681Z,23.70
2023-04-17T01:54:39.935Z,23.63
2023-04-17T01:57:11.410Z,24.87
2023-04-17T01:59:40.802Z,25.37
2023-04-17T02:02:10.121Z,24.90
2023-04-17T02:04:39.946Z,25.50
2023-04-17T02:07:09.794Z,25.50
2023-04-17T02:09:39.491Z,24.30
2023-04-17T02:12:06.959Z,25.97
2023-04-17T02:14:36.823Z,24.63
2023-04-17T02:17:03.976Z,24.20
2023-04-17T02:19:33.594Z,25.70
2023-04-17T02:22:05.692Z,25.73
2023-04-17T02:24:32.844Z,26.00
2023-04-17T02:27:00.225Z,24.97
2023-04-17T02:29:27.341Z,26.77
2023-04-17T02:31:54.471Z,25.10
2023-04-17T02:34:23.671Z,24.90
2023-04-17T02:36:51.076Z,26.60
2023-04-17T02:39:18.194Z,25.80
2023-04-17T02:41:49.896Z,26.23
2023-04-17T02:44:16.998Z,30.20
2023-04-17T02:46:46.688Z,28.97
2023-04-17T02:49:18.379Z,28.57
2023-04-17T02:51:52.292Z,30.40
2023-04-17T02:54:24.141Z,28.23
2023-04-17T02:56:53.555Z,29.10
2023-04-17T02:59:26.323Z,28.27
2023-04-17T03:01:53.797Z,29.60
2023-04-17T03:04:23.199Z,28.07
2023-04-17T03:06:53.036Z,28.50
2023-04-17T03:09:22.347Z,29.07
2023-04-17T03:11:52.096Z,27.77
2023-04-17T03:14:21.770Z,28.37
2023-04-17T03:16:56.016Z,29.63
2023-04-17T03:19:23.140Z,29.93
2023-04-17T03:21:52.503Z,30.20
2023-04-17T03:24:22.026Z,28.67
2023-04-17T03:26:51.253Z,29.77
2023-04-17T03:29:18.378Z,31.17
2023-04-17T03:31:45.552Z,31.00
2023-04-17T03:34:18.727Z,29.67
2023-04-17T03:36:52.934Z,29.87
2023-04-17T03:39:20.674Z,30.50
2023-04-17T03:41:52.309Z,30.40
2023-04-17T03:44:21.844Z,31.47
2023-04-17T03:46:48.934Z,31.20
2023-04-17T03:49:23.025Z,30.83
2023-04-17T03:51:52.322Z,29.27
2023-04-17T03:54:20.528Z,30.47
2023-04-17T03:56:48.615Z,31.13
2023-04-17T03:59:16.732Z,29.33
2023-04-17T04:01:46.520Z,29.60
2023-04-17T04:04:14.104Z,29.17
2023-04-17T04:06:42.758Z,28.87
2023-04-17T04:09:12.232Z,28.43
2023-04-17T04:11:39.549Z,27.50
2023-04-17T04:14:09.003Z,26.97
2023-04-17T04:16:36.274Z,29.50
2023-04-17T04:19:06.702Z,28.43
2023-04-17T04:21:38.703Z,27.10
2023-04-17T04:24:08.606Z,28.77
2023-04-17T04:26:41.013Z,28.03
2023-04-17T04:29:09.133Z,28.43
2023-04-17T04:31:39.017Z,27.83
2023-04-17T04:34:06.412Z,31.00
2023-04-17T04:36:42.071Z,29.37
2023-04-17T04:39:10.027Z,28.63
2023-04-17T04:41:38.195Z,29.17
2023-04-17T04:44:07.636Z,31.37
2023-04-17T04:46:37.042Z,30.13
2023-04-17T04:49:06.926Z,27.57
2023-04-17T04:51:35.358Z,27.83
2023-04-17T04:54:05.764Z,27.50
2023-04-17T04:56:33.120Z,25.03
2023-04-17T04:59:02.787Z,28.07
2023-04-17T05:01:32.491Z,25.17
2023-04-17T05:04:02.290Z,24.80
2023-04-17T05:06:29.546Z,24.40
2023-04-17T05:09:01.692Z,23.33
2023-04-17T05:11:29.390Z,22.73
2023-04-17T05:13:56.560Z,24.27
2023-04-17T05:16:31.003Z,21.87
2023-04-17T05:18:58.203Z,22.40
2023-04-17T05:21:30.979Z,21.30
2023-04-17T05:23:59.348Z,21.87
2023-04-17T05:26:28.687Z,23.03
2023-04-17T05:28:57.834Z,24.57
2023-04-17T05:31:27.290Z,24.40
2023-04-17T05:33:54.481Z,24.07
2023-04-17T05:36:24.816Z,23.90
2023-04-17T05:38:52.005Z,24.23
2023-04-17T05:41:19.152Z,23.30
2023-04-17T05:43:47.272Z,23.67
2023-04-17T05:46:15.528Z,23.77
2023-04-17T05:48:43.709Z,24.60
2023-04-17T05:51:13.610Z,26.80
2023-04-17T05:53:40.961Z,23.53
2023-04-17T05:56:10.701Z,25.43
2023-04-17T05:58:40.333Z,24.63
2023-04-17T06:01:18.356Z,24.80
2023-04-17T06:03:48.529Z,26.60
2023-04-17T06:06:15.950Z,24.80
2023-04-17T06:08:47.514Z,26.30
2023-04-17T06:11:17.230Z,26.13
2023-04-17T06:13:44.796Z,25.80
2023-04-17T06:16:14.272Z,24.83
2023-04-17T06:18:41.617Z,24.43
2023-04-17T06:21:11.231Z,24.97
2023-04-17T06:23:43.054Z,24.20
2023-04-17T06:26:15.170Z,23.83
2023-04-17T06:28:44.777Z,23.73
2023-04-17T06:31:14.047Z,23.63
2023-04-17T06:33:41.276Z,25.53
2023-04-17T06:36:12.804Z,23.20
2023-04-17T06:38:44.436Z,22.73
2023-04-17T06:41:14.543Z,23.70
2023-04-17T06:43:41.841Z,22.73
2023-04-17T06:46:09.066Z,21.53
2023-04-17T06:48:38.630Z,21.03
2023-04-17T06:51:08.261Z,22.07
2023-04-17T06:53:35.577Z,21.40
2023-04-17T06:56:05.299Z,20.87
2023-04-17T06:58:43.964Z,21.40
2023-04-17T07:01:14.663Z,21.43
2023-04-17T07:03:43.099Z,21.77
2023-04-17T07:06:10.567Z,22.00
2023-04-17T07:08:37.802Z,23.07
2023-04-17T07:11:08.096Z,22.90
2023-04-17T07:13:37.763Z,22.00
2023-04-17T07:16:06.361Z,20.43
2023-04-17T07:18:35.795Z,20.90
2023-04-17T07:21:05.846Z,20.20
2023-04-17T07:23:33.000Z,21.13
2023-04-17T07:26:02.465Z,19.73
2023-04-17T07:28:31.853Z,19.27
2023-04-17T07:30:58.943Z,19.60
2023-04-17T07:33:28.248Z,21.20
2023-04-17T07:35:57.985Z,21.97
2023-04-17T07:38:27.465Z,22.63
2023-04-17T07:40:54.564Z,21.60
2023-04-17T07:43:23.925Z,22.63
2023-04-17T07:45:51.104Z,21.50
2023-04-17T07:48:24.407Z,21.83
2023-04-17T07:50:54.007Z,23.80
2023-04-17T07:53:25.681Z,22.70
2023-04-17T07:55:58.426Z,24.00
2023-04-17T07:58:27.092Z,21.50
2023-04-17T08:00:57.402Z,23.00
2023-04-17T08:03:29.919Z,24.03
2023-04-17T08:06:02.195Z,24.17
2023-04-17T08:08:29.382Z,23.20
2023-04-17T08:10:58.706Z,22.60
2023-04-17T08:13:26.753Z,23.27
2023-04-17T08:16:01.598Z,24.17
2023-04-17T08:18:32.330Z,24.37
2023-04-17T08:21:04.339Z,25.77
2023-04-17T08:23:36.030Z,23.30
2023-04-17T08:26:05.482Z,25.07
2023-04-17T08:28:36.898Z,23.73
2023-04-17T08:31:08.742Z,24.07
2023-04-17T08:33:35.986Z,23.53
2023-04-17T08:36:07.248Z,26.23
2023-04-17T08:38:38.717Z,23.27
2023-04-17T08:41:10.181Z,24.80
2023-04-17T08:43:37.508Z,24.53
2023-04-17T08:46:05.145Z,24.43
2023-04-17T08:48:34.841Z,24.43
2023-04-17T08:51:04.343Z,23.30
2023-04-17T08:53:34.676Z,24.30
2023-04-17T08:56:08.292Z,24.70
2023-04-17T08:58:37.115Z,27.23
2023-04-17T09:01:11.291Z,25.20
2023-04-17T09:03:45.847Z,25.73
2023-04-17T09:06:16.440Z,24.70
2023-04-17T09:08:59.622Z,26.73
2023-04-17T09:11:33.543Z,24.17
2023-04-17T09:14:01.347Z,24.40
2023-04-17T09:16:29.197Z,25.03
2023-04-17T09:19:08.794Z,25.40
2023-04-17T09:21:41.145Z,24.83
2023-04-17T09:24:10.128Z,25.37
2023-04-17T09:26:39.573Z,23.77
2023-04-17T09:29:12.277Z,24.73
2023-04-17T09:31:42.380Z,24.63
2023-04-17T09:34:12.232Z,23.87
2023-04-17T09:36:43.774Z,24.30
2023-04-17T09:39:21.109Z,23.83
2023-04-17T09:41:48.398Z,24.17
2023-04-17T09:44:30.973Z,24.13
2023-04-17T09:47:01.396Z,24.70
2023-04-17T09:49:42.536Z,23.60
2023-04-17T09:52:15.624Z,26.10
2023-04-17T09:54:46.457Z,24.00
2023-04-17T09:57:13.752Z,23.93
2023-04-17T09:59:43.153Z,26.43
2023-04-17T10:02:14.440Z,25.33
2023-04-17T10:04:42.908Z,25.17
2023-04-17T10:07:13.248Z,24.80
2023-04-17T10:09:42.185Z,24.20
2023-04-17T10:12:17.584Z,22.90
2023-04-17T10:14:52.421Z,24.00
2023-04-17T10:17:34.382Z,26.23
2023-04-17T10:20:20.102Z,24.93
2023-04-17T10:22:54.774Z,25.50
2023-04-17T10:25:31.987Z,25.40
2023-04-17T10:28:03.072Z,26.40
2023-04-17T10:31:08.024Z,25.27
2023-04-17T10:33:54.146Z,24.70
2023-04-17T10:36:40.381Z,24.23
2023-04-17T10:39:18.333Z,26.00
2023-04-17T10:42:05.780Z,26.80
2023-04-17T10:44:41.286Z,23.83
2023-04-17T10:47:18.328Z,24.80
2023-04-17T10:49:48.439Z,24.63
2023-04-17T10:52:45.550Z,25.63
2023-04-17T10:55:20.891Z,24.30
2023-04-17T10:58:05.014Z,23.53
2023-04-17T11:00:49.535Z,25.03
2023-04-17T11:03:23.152Z,25.80
2023-04-17T11:05:51.933Z,24.87
2023-04-17T11:08:22.458Z,25.17
2023-04-17T11:11:00.466Z,25.63
2023-04-17T11:13:32.627Z,24.83
2023-04-17T11:15:59.887Z,26.10
2023-04-17T11:18:27.054Z,25.47
2023-04-17T11:20:57.250Z,26.00
2023-04-17T11:23:34.014Z,24.97
2023-04-17T11:26:01.453Z,26.47
2023-04-17T11:28:31.593Z,26.37
2023-04-17T11:31:00.905Z,27.13
2023-04-17T11:33:37.714Z,25.90
2023-04-17T11:36:06.478Z,24.83
2023-04-17T11:38:34.250Z,24.80
2023-04-17T11:41:05.986Z,24.00
2023-04-17T11:43:37.863Z,24.37
2023-04-17T11:46:05.372Z,21.90
2023-04-17T11:48:34.912Z,24.83
2023-04-17T11:51:05.286Z,24.90
2023-04-17T11:53:46.210Z,24.37
2023-04-17T11:56:19.738Z,24.17
2023-04-17T11:58:53.908Z,24.63
2023-04-17T12:01:27.836Z,24.17
2023-04-17T12:03:56.998Z,23.50
2023-04-17T12:06:24.906Z,24.70
2023-04-17T12:08:53.893Z,23.27
2023-04-17T12:11:31.251Z,25.13
2023-04-17T12:14:01.827Z,24.03
2023-04-17T12:16:29.784Z,22.83
2023-04-17T12:19:01.402Z,22.60
2023-04-17T12:21:32.981Z,24.87
2023-04-17T12:24:00.373Z,23.73
2023-04-17T12:26:30.140Z,24.03
2023-04-17T12:28:57.696Z,22.53
2023-04-17T12:31:29.369Z,23.83
2023-04-17T12:33:58.951Z,24.10
2023-04-17T12:36:28.494Z,23.73
2023-04-17T12:38:58.058Z,22.47
2023-04-17T12:41:26.760Z,24.10
2023-04-17T12:44:00.232Z,24.60
2023-04-17T12:46:30.594Z,24.47
2023-04-17T12:49:00.441Z,23.70
2023-04-17T12:51:38.071Z,23.70
2023-04-17T12:54:08.375Z,23.47
2023-04-17T12:56:35.894Z,23.43
2023-04-17T12:59:07.441Z,23.33
2023-04-17T13:01:37.081Z,23.30
2023-04-17T13:04:04.624Z,23.57
2023-04-17T13:06:32.506Z,24.17
2023-04-17T13:09:02.231Z,24.87
2023-04-17T13:11:32.414Z,23.47
2023-04-17T13:13:59.658Z,24.73
2023-04-17T13:16:27.034Z,23.33
2023-04-17T13:18:56.848Z,21.67
2023-04-17T13:21:23.944Z,21.37
2023-04-17T13:23:51.083Z,23.47
2023-04-17T13:26:20.878Z,23.58
2023-04-17T13:28:48.015Z,23.67
2023-04-17T13:31:17.530Z,23.13
2023-04-17T13:33:46.932Z,21.93
2023-04-17T13:36:14.101Z,21.37
2023-04-17T13:38:41.823Z,21.03
2023-04-17T13:41:14.029Z,22.73
2023-04-17T13:43:45.979Z,23.77
2023-04-17T13:46:16.184Z,21.97
2023-04-17T13:48:43.741Z,22.80
2023-04-17T13:51:13.829Z,22.57
2023-04-17T13:53:43.192Z,23.90
2023-04-17T13:56:12.851Z,22.70
2023-04-17T13:58:45.532Z,22.03
2023-04-17T14:01:15.389Z,24.10
2023-04-17T14:03:47.762Z,23.50
2023-04-17T14:06:20.354Z,24.97
2023-04-17T14:08:47.772Z,21.67
2023-04-17T14:11:15.468Z,23.00
2023-04-17T14:13:45.188Z,21.97
2023-04-17T14:16:15.176Z,23.10
2023-04-17T14:18:46.009Z,22.37
2023-04-17T14:21:13.199Z,23.23
2023-04-17T14:23:42.627Z,21.33
2023-04-17T14:26:12.884Z,20.53
2023-04-17T14:28:42.732Z,21.40
2023-04-17T14:31:09.944Z,22.93
2023-04-17T14:33:37.167Z,22.60
2023-04-17T14:36:05.942Z,20.00
2023-04-17T14:38:34.122Z,18.80
2023-04-17T14:41:03.896Z,19.93
2023-04-17T14:43:35.761Z,18.90
2023-04-17T14:46:05.075Z,19.13
2023-04-17T14:48:44.288Z,18.57
2023-04-17T14:53:49.212Z,20.02
2023-04-17T14:56:16.812Z,20.50
2023-04-17T14:58:43.891Z,21.02
2023-04-17T15:01:13.566Z,19.10
2023-04-17T15:03:46.848Z,20.50
2023-04-17T15:06:16.170Z,18.70
2023-04-17T15:08:48.458Z,17.90
2023-04-17T15:11:16.155Z,17.98
2023-04-17T15:13:43.307Z,17.73
2023-04-17T15:16:11.014Z,18.07
2023-04-17T15:18:44.883Z,16.67
2023-04-17T15:21:16.431Z,16.00
2023-04-17T15:23:45.609Z,16.55
2023-04-17T15:26:13.513Z,16.83
2023-04-17T15:28:45.670Z,16.50
2023-04-17T15:31:15.738Z,16.47
2023-04-17T15:33:42.873Z,18.50
2023-04-17T15:36:10.016Z,18.92
2023-04-17T15:38:41.851Z,17.63
2023-04-17T15:41:10.607Z,18.20
2023-04-17T15:43:38.531Z,19.97
2023-04-17T15:46:08.342Z,19.30
2023-04-17T15:48:37.819Z,20.33
2023-04-17T15:51:05.211Z,18.52
2023-04-17T15:53:37.141Z,18.65
2023-04-17T15:56:06.332Z,18.67
2023-04-17T15:58:35.915Z,18.58
2023-04-17T16:01:07.841Z,17.40
2023-04-17T16:03:40.956Z,18.73
2023-04-17T16:06:11.226Z,18.08
2023-04-17T16:08:41.026Z,18.13
2023-04-17T16:11:12.648Z,17.67
2023-04-17T16:13:42.235Z,16.65
2023-04-17T16:16:10.723Z,15.27
2023-04-17T16:18:37.916Z,16.73
2023-04-17T16:21:14.665Z,16.75
2023-04-17T16:23:41.938Z,15.07
2023-04-17T16:26:09.002Z,15.17
2023-04-17T16:28:36.142Z,16.53
2023-04-17T16:31:03.288Z,12.80
2023-04-17T16:33:30.423Z,13.90
2023-04-17T16:36:02.010Z,12.90
2023-04-17T16:38:31.722Z,13.57
2023-04-17T16:41:02.023Z,12.73
2023-04-17T16:43:33.810Z,12.85
2023-04-17T16:46:05.453Z,13.13
2023-04-17T16:48:35.590Z,13.10
2023-04-17T16:51:07.705Z,13.15
2023-04-17T16:53:37.161Z,12.05
2023-04-17T16:56:09.188Z,13.15
2023-04-17T16:58:39.670Z,11.85
2023-04-17T17:01:09.676Z,13.15
2023-04-17T17:03:43.488Z,12.80
2023-04-17T17:06:12.927Z,12.32
2023-04-17T17:08:46.843Z,11.77
2023-04-17T17:11:18.400Z,11.35
2023-04-17T17:13:51.724Z,11.85
2023-04-17T17:16:23.726Z,10.65
2023-04-17T17:18:53.462Z,11.07
2023-04-17T17:21:20.823Z,11.45
2023-04-17T17:23:50.422Z,11.07
2023-04-17T17:26:20.013Z,11.35
2023-04-17T17:28:51.246Z,10.32
2023-04-17T17:31:21.138Z,10.05
2023-04-17T17:33:54.990Z,9.82
2023-04-17T17:36:22.144Z,9.70
2023-04-17T17:38:55.568Z,10.23
2023-04-17T17:41:25.790Z,9.98
2023-04-17T17:43:55.980Z,10.20
2023-04-17T17:46:27.726Z,10.80
2023-04-17T17:48:59.182Z,10.07
2023-04-17T17:51:28.551Z,10.73
2023-04-17T17:53:55.771Z,10.52
2023-04-17T17:56:28.526Z,9.57
2023-04-17T17:58:58.136Z,10.27
2023-04-17T18:01:25.409Z,10.20
2023-04-17T18:03:53.341Z,11.27
2023-04-17T18:06:21.321Z,9.90
2023-04-17T18:08:48.759Z,9.50
2023-04-17T18:11:23.203Z,10.65
2023-04-17T18:13:50.797Z,10.77
2023-04-17T18:16:20.290Z,9.85
2023-04-17T18:18:47.433Z,10.43
2023-04-17T18:21:14.521Z,10.50
2023-04-17T18:23:41.668Z,10.40
2023-04-17T18:26:08.820Z,10.45
2023-04-17T18:28:38.689Z,10.38
2023-04-17T18:31:05.902Z,11.43
2023-04-17T18:33:33.076Z,10.68
2023-04-17T18:36:02.498Z,10.35
2023-04-17T18:38:29.544Z,11.75
2023-04-17T18:41:01.810Z,10.52
2023-04-17T18:43:29.034Z,10.50
2023-04-17T18:46:02.260Z,11.18
2023-04-17T18:48:32.121Z,10.32
2023-04-17T18:51:09.463Z,10.85
2023-04-17T18:53:39.186Z,10.80
2023-04-17T18:56:10.734Z,9.93
2023-04-17T18:58:40.618Z,10.75
2023-04-17T19:01:10.817Z,10.70
2023-04-17T19:03:42.641Z,11.93
2023-04-17T19:06:12.019Z,11.68
2023-04-17T19:08:45.560Z,10.90
2023-04-17T19:11:12.921Z,11.10
2023-04-17T19:13:42.316Z,11.20
2023-04-17T19:16:09.461Z,11.30
2023-04-17T19:18:36.638Z,12.38
2023-04-17T19:21:06.229Z,10.73
2023-04-17T19:23:37.050Z,11.95
2023-04-17T19:26:04.224Z,11.43
2023-04-17T19:28:31.371Z,11.45
2023-04-17T19:30:59.235Z,11.93
2023-04-17T19:33:28.551Z,11.07
2023-04-17T19:35:58.367Z,11.82
2023-04-17T19:38:28.498Z,11.93
2023-04-17T19:41:20.017Z,12.68
2023-04-17T19:43:54.213Z,12.40
2023-04-17T19:46:22.986Z,12.18
2023-04-17T19:48:55.296Z,11.77
2023-04-17T19:51:24.904Z,12.38
2023-04-17T19:53:54.539Z,12.15
2023-04-17T19:56:21.682Z,13.05
2023-04-17T19:58:48.777Z,12.02
2023-04-17T20:01:16.162Z,11.43
2023-04-17T20:03:45.864Z,12.18
2023-04-17T20:06:15.233Z,12.83
2023-04-17T20:08:45.152Z,13.40
2023-04-17T20:11:16.369Z,12.23
2023-04-17T20:13:43.474Z,12.60
2023-04-17T20:16:12.992Z,12.33
2023-04-17T20:18:41.606Z,13.35
2023-04-17T20:21:12.492Z,13.80
2023-04-17T20:23:39.608Z,13.10
2023-04-17T20:26:06.768Z,13.50
2023-04-17T20:28:36.115Z,13.57
2023-04-17T20:31:10.480Z,13.63
2023-04-17T20:33:37.726Z,12.17
2023-04-17T20:36:07.822Z,13.63
2023-04-17T20:38:37.154Z,12.63
2023-04-17T20:41:06.583Z,13.13
2023-04-17T20:43:35.975Z,12.77
2023-04-17T20:46:06.131Z,13.43
2023-04-17T20:48:35.522Z,14.80
2023-04-17T20:51:05.552Z,14.67
2023-04-17T20:53:37.417Z,15.00
2023-04-17T20:56:04.751Z,14.23
2023-04-17T20:58:34.156Z,15.00
2023-04-17T21:01:03.745Z,14.52
2023-04-17T21:03:31.398Z,13.87
2023-04-17T21:05:59.199Z,14.33
2023-04-17T21:08:28.840Z,14.47
2023-04-17T21:10:59.135Z,14.30
2023-04-17T21:13:31.346Z,14.53
2023-04-17T21:16:01.085Z,14.73
2023-04-17T21:18:30.705Z,14.00
2023-04-17T21:21:02.699Z,15.37
2023-04-17T21:23:34.467Z,15.33
2023-04-17T21:26:04.943Z,15.90
2023-04-17T21:28:36.835Z,15.43
2023-04-17T21:31:10.341Z,15.67
2023-04-17T21:33:40.147Z,16.33
2023-04-17T21:36:07.359Z,16.50
2023-04-17T21:38:34.487Z,15.20
2023-04-17T21:41:01.624Z,17.37
2023-04-17T21:43:31.679Z,16.70
2023-04-17T21:46:03.660Z,15.77
2023-04-17T21:48:30.842Z,16.37
2023-04-17T21:51:04.866Z,17.47
2023-04-17T21:53:37.359Z,16.27
2023-04-17T21:56:06.863Z,17.23
2023-04-17T21:58:34.280Z,17.03
2023-04-17T22:01:03.680Z,16.63
2023-04-17T22:03:30.858Z,17.73
2023-04-17T22:05:58.321Z,18.10
2023-04-17T22:08:25.495Z,17.43
2023-04-17T22:10:55.199Z,16.67
2023-04-17T22:13:24.311Z,16.27
2023-04-17T22:15:51.587Z,18.10
2023-04-17T22:18:23.508Z,17.30
2023-04-17T22:20:50.599Z,17.97
2023-04-17T22:23:20.047Z,18.07
2023-04-17T22:25:47.288Z,18.27
2023-04-17T22:28:14.388Z,18.77
2023-04-17T22:30:43.623Z,19.50
2023-04-17T22:33:10.771Z,18.00
2023-04-17T22:35:40.441Z,17.37
2023-04-17T22:38:09.694Z,17.40
2023-04-17T22:40:40.240Z,17.87
2023-04-17T22:43:07.394Z,20.07
2023-04-17T22:45:36.997Z,18.43
2023-04-17T22:48:06.758Z,18.10
2023-04-17T22:50:34.224Z,16.27
2023-04-17T22:53:01.342Z,18.23
2023-04-17T22:55:30.781Z,18.70
2023-04-17T22:58:01.937Z,19.37
2023-04-17T23:00:30.512Z,18.50
2023-04-17T23:02:58.171Z,17.57
2023-04-17T23:05:27.885Z,18.13
2023-04-17T23:07:54.980Z,17.43
2023-04-17T23:10:26.741Z,18.33
2023-04-17T23:12:56.402Z,17.63
2023-04-17T23:15:23.735Z,17.77
2023-04-17T23:17:53.317Z,17.70
2023-04-17T23:20:20.563Z,18.67
2023-04-17T23:22:47.681Z,17.67
2023-04-17T23:25:22.479Z,18.13
2023-04-17T23:27:49.606Z,16.83
2023-04-17T23:30:18.990Z,16.87
2023-04-17T23:32:51.035Z,17.13
2023-04-17T23:35:18.354Z,17.03
2023-04-17T23:37:51.659Z,17.30
2023-04-17T23:40:18.789Z,17.00
2023-04-17T23:42:45.922Z,17.23
2023-04-17T23:45:15.594Z,16.50
2023-04-17T23:47:42.701Z,17.13
2023-04-17T23:50:12.615Z,18.03
2023-04-17T23:52:39.711Z,16.30
2023-04-17T23:55:14.026Z,17.17
2023-04-17T23:57:45.898Z,16.57
